createdAt,value
2023-08-20T00:01:59.559Z,68.77
2023-08-20T00:04:27.953Z,69.01
2023-08-20T00:06:55.088Z,69.29
2023-08-20T00:09:21.778Z,69.19
2023-08-20T00:11:48.384Z,69.34
2023-08-20T00:14:18.321Z,69.13
2023-08-20T00:16:45.590Z,69.36
2023-08-20T00:19:14.961Z,68.96
2023-08-20T00:21:45.675Z,69.35
2023-08-20T00:24:13.377Z,69.29
2023-08-20T00:26:42.637Z,69.26
2023-08-20T00:29:13.813Z,69.56
2023-08-20T00:31:46.104Z,69.37
2023-08-20T00:34:12.741Z,69.25
2023-08-20T00:36:41.463Z,69.13
2023-08-20T00:39:08.635Z,69.33
2023-08-20T00:41:35.292Z,69.12
2023-08-20T00:44:01.888Z,69.63
2023-08-20T00:46:28.564Z,69.56
2023-08-20T00:48:55.203Z,69.39
2023-08-20T00:51:22.943Z,69.29
2023-08-20T00:53:49.895Z,69.66
2023-08-20T00:56:21.487Z,69.82
2023-08-20T00:58:48.288Z,69.43
2023-08-20T01:01:14.983Z,69.75
2023-08-20T01:03:41.686Z,69.53
2023-08-20T01:06:26.690Z,69.84
2023-08-20T01:09:03.892Z,69.90
2023-08-20T01:11:38.409Z,69.47
2023-08-20T01:14:17.953Z,69.62
2023-08-20T01:16:46.085Z,70.03
2023-08-20T01:19:20.313Z,70.09
2023-08-20T01:22:14.826Z,70.21
2023-08-20T01:25:09.272Z,70.03
2023-08-20T01:27:59.119Z,70.18
2023-08-20T01:30:26.754Z,70.49
2023-08-20T01:32:59.416Z,69.98
2023-08-20T01:35:27.574Z,70.50
2023-08-20T01:37:54.217Z,70.11
2023-08-20T01:40:21.129Z,70.58
2023-08-20T01:42:52.262Z,70.59
2023-08-20T01:45:22.780Z,70.57
2023-08-20T01:47:49.475Z,70.81
2023-08-20T01:50:18.858Z,70.61
2023-08-20T01:52:45.554Z,70.60
2023-08-20T01:55:14.742Z,70.31
2023-08-20T01:57:41.586Z,70.79
2023-08-20T02:00:11.180Z,70.88
2023-08-20T02:02:40.116Z,70.41
2023-08-20T02:05:11.873Z,70.49
2023-08-20T02:07:38.580Z,70.57
2023-08-20T02:10:05.876Z,71.01
2023-08-20T02:12:32.524Z,70.99
2023-08-20T02:15:01.400Z,70.58
2023-08-20T02:17:28.038Z,70.93
2023-08-20T02:19:56.741Z,70.94
2023-08-20T02:22:25.627Z,70.92
2023-08-20T02:24:52.238Z,70.77
2023-08-20T02:27:18.828Z,70.72
2023-08-20T02:29:47.971Z,71.12
2023-08-20T02:32:14.620Z,70.98
2023-08-20T02:34:43.567Z,71.22
2023-08-20T02:37:12.672Z,70.93
2023-08-20T02:39:39.275Z,71.32
2023-08-20T02:42:08.341Z,70.87
2023-08-20T02:44:35.001Z,70.85
2023-08-20T02:47:01.653Z,70.83
2023-08-20T02:49:28.260Z,70.95
2023-08-20T02:51:54.906Z,71.25
2023-08-20T02:54:23.648Z,71.20
2023-08-20T02:56:55.038Z,70.95
2023-08-20T02:59:21.674Z,70.92
2023-08-20T03:01:48.368Z,70.96
2023-08-20T03:04:15.081Z,71.43
2023-08-20T03:06:45.139Z,71.08
2023-08-20T03:09:14.017Z,71.03
2023-08-20T03:11:45.172Z,71.52
2023-08-20T03:14:11.767Z,71.31
2023-08-20T03:16:38.354Z,71.67
2023-08-20T03:19:05.351Z,71.22
2023-08-20T03:21:32.220Z,71.29
2023-08-20T03:24:01.062Z,71.35
2023-08-20T03:26:29.898Z,71.68
2023-08-20T03:28:56.700Z,71.89
2023-08-20T03:31:23.369Z,71.30
2023-08-20T03:33:50.317Z,71.42
2023-08-20T03:36:16.993Z,71.57
2023-08-20T03:38:43.702Z,71.60
2023-08-20T03:41:10.332Z,71.89
2023-08-20T03:43:36.982Z,71.48
2023-08-20T03:46:03.838Z,71.75
2023-08-20T03:48:32.980Z,71.55
2023-08-20T03:50:59.644Z,71.78
2023-08-20T03:53:26.372Z,71.60
2023-08-20T03:55:53.007Z,71.90
2023-08-20T03:58:19.683Z,71.80
2023-08-20T04:00:46.337Z,71.96
2023-08-20T04:03:13.104Z,71.66
2023-08-20T04:05:40.129Z,71.84
2023-08-20T04:08:07.503Z,71.95
2023-08-20T04:10:36.753Z,71.64
2023-08-20T04:13:06.459Z,71.51
2023-08-20T04:15:33.102Z,71.89
2023-08-20T04:17:59.804Z,71.50
2023-08-20T04:20:26.478Z,71.64
2023-08-20T04:22:57.739Z,72.03
2023-08-20T04:25:24.440Z,71.68
2023-08-20T04:27:51.067Z,71.76
2023-08-20T04:30:17.822Z,71.60
2023-08-20T04:32:46.739Z,71.50
2023-08-20T04:35:13.384Z,71.86
2023-08-20T04:37:42.238Z,71.50
2023-08-20T04:40:09.319Z,71.81
2023-08-20T04:42:35.955Z,71.76
2023-08-20T04:45:02.637Z,71.60
2023-08-20T04:47:32.019Z,71.73
2023-08-20T04:49:59.069Z,71.59
2023-08-20T04:52:25.698Z,71.28
2023-08-20T04:54:52.310Z,71.43
2023-08-20T04:57:18.984Z,71.87
2023-08-20T04:59:46.540Z,71.75
2023-08-20T05:02:13.721Z,71.39
2023-08-20T05:04:45.644Z,71.62
2023-08-20T05:07:12.301Z,71.62
2023-08-20T05:09:38.932Z,71.88
2023-08-20T05:12:05.848Z,71.56
2023-08-20T05:14:35.052Z,71.75
2023-08-20T05:17:01.938Z,71.52
2023-08-20T05:19:28.523Z,71.69
2023-08-20T05:21:59.875Z,71.81
2023-08-20T05:24:27.128Z,71.71
2023-08-20T05:27:08.081Z,71.55
2023-08-20T05:29:35.000Z,71.69
2023-08-20T05:32:01.667Z,71.74
2023-08-20T05:34:28.351Z,71.58
2023-08-20T05:36:59.713Z,71.55
2023-08-20T05:39:29.242Z,71.58
2023-08-20T05:41:58.585Z,71.81
2023-08-20T05:44:25.220Z,71.81
2023-08-20T05:46:54.274Z,72.03
2023-08-20T05:49:20.895Z,72.00
2023-08-20T05:51:47.581Z,72.04
2023-08-20T05:54:14.188Z,71.80
2023-08-20T05:56:43.055Z,71.70
2023-08-20T05:59:12.011Z,71.84
2023-08-20T06:01:41.202Z,71.78
2023-08-20T06:04:07.871Z,71.63
2023-08-20T06:06:34.577Z,71.96
2023-08-20T06:09:08.381Z,71.78
2023-08-20T06:11:36.676Z,71.84
2023-08-20T06:14:04.035Z,71.68
2023-08-20T06:16:31.156Z,71.58
2023-08-20T06:19:00.474Z,71.73
2023-08-20T06:21:28.570Z,72.24
2023-08-20T06:23:58.143Z,72.17
2023-08-20T06:26:26.993Z,72.25
2023-08-20T06:28:53.620Z,71.84
2023-08-20T06:31:22.495Z,72.43
2023-08-20T06:33:49.220Z,72.35
2023-08-20T06:36:16.984Z,71.94
2023-08-20T06:38:45.009Z,72.02
2023-08-20T06:41:11.682Z,72.65
2023-08-20T06:43:38.292Z,72.18
2023-08-20T06:46:07.804Z,72.27
2023-08-20T06:48:34.481Z,72.72
2023-08-20T06:51:09.653Z,72.70
2023-08-20T06:53:36.242Z,72.95
2023-08-20T06:56:02.839Z,72.80
2023-08-20T06:58:29.435Z,72.50
2023-08-20T07:01:08.175Z,72.40
2023-08-20T07:03:39.507Z,72.60
2023-08-20T07:06:06.822Z,72.69
2023-08-20T07:08:36.631Z,72.75
2023-08-20T07:11:06.264Z,72.54
2023-08-20T07:13:32.963Z,72.63
2023-08-20T07:16:02.146Z,72.91
2023-08-20T07:18:29.759Z,72.42
2023-08-20T07:20:57.545Z,72.59
2023-08-20T07:23:24.451Z,72.94
2023-08-20T07:26:04.767Z,73.04
2023-08-20T07:28:51.385Z,73.25
2023-08-20T07:31:20.444Z,72.76
2023-08-20T07:33:48.931Z,73.00
2023-08-20T07:36:16.227Z,73.17
2023-08-20T07:38:44.542Z,72.52
2023-08-20T07:41:12.397Z,73.15
2023-08-20T07:43:40.810Z,72.76
2023-08-20T07:46:08.767Z,73.07
2023-08-20T07:48:38.970Z,73.08
2023-08-20T07:51:06.236Z,72.99
2023-08-20T07:53:34.118Z,73.04
2023-08-20T07:56:02.085Z,72.44
2023-08-20T07:58:31.800Z,72.42
2023-08-20T08:00:59.188Z,72.49
2023-08-20T08:03:27.973Z,72.41
2023-08-20T08:05:55.933Z,72.93
2023-08-20T08:08:25.497Z,72.44
2023-08-20T08:10:54.676Z,72.51
2023-08-20T08:13:26.753Z,72.82
2023-08-20T08:15:53.510Z,72.63
2023-08-20T08:18:21.316Z,72.57
2023-08-20T08:20:50.824Z,72.48
2023-08-20T08:23:19.960Z,72.35
2023-08-20T08:25:49.339Z,72.26
2023-08-20T08:28:15.998Z,71.84
2023-08-20T08:30:42.676Z,72.23
2023-08-20T08:33:12.442Z,71.91
2023-08-20T08:35:39.071Z,72.02
2023-08-20T08:38:08.301Z,71.43
2023-08-20T08:40:38.138Z,71.74
2023-08-20T08:43:07.291Z,71.73
2023-08-20T08:45:35.823Z,71.89
2023-08-20T08:48:03.733Z,71.58
2023-08-20T08:50:31.830Z,71.42
2023-08-20T08:52:59.303Z,71.40
2023-08-20T08:55:26.684Z,71.76
2023-08-20T08:57:53.498Z,71.32
2023-08-20T09:00:20.202Z,71.43
2023-08-20T09:02:47.254Z,71.63
2023-08-20T09:05:19.495Z,71.29
2023-08-20T09:07:46.199Z,71.16
2023-08-20T09:10:15.305Z,71.58
2023-08-20T09:12:42.163Z,71.59
2023-08-20T09:15:13.115Z,70.99
2023-08-20T09:17:42.697Z,71.32
2023-08-20T09:20:12.069Z,71.24
2023-08-20T09:22:49.519Z,71.04
2023-08-20T09:25:18.089Z,70.86
2023-08-20T09:27:44.731Z,70.42
2023-08-20T09:30:21.780Z,70.70
2023-08-20T09:33:09.511Z,70.78
2023-08-20T09:35:38.715Z,70.41
2023-08-20T09:38:05.950Z,70.21
2023-08-20T09:40:33.108Z,70.58
2023-08-20T09:43:02.366Z,70.68
2023-08-20T09:45:30.127Z,70.50
2023-08-20T09:47:59.461Z,70.43
2023-08-20T09:50:27.280Z,70.14
2023-08-20T09:53:07.601Z,69.66
2023-08-20T09:55:36.861Z,69.58
2023-08-20T09:58:04.507Z,69.80
2023-08-20T10:00:31.838Z,69.66
2023-08-20T10:03:02.156Z,69.72
2023-08-20T10:05:29.378Z,69.68
2023-08-20T10:07:57.331Z,69.24
2023-08-20T10:10:23.986Z,69.34
2023-08-20T10:12:50.799Z,69.58
2023-08-20T10:15:20.135Z,69.70
2023-08-20T10:17:49.035Z,69.14
2023-08-20T10:20:19.272Z,69.50
2023-08-20T10:22:50.237Z,69.21
2023-08-20T10:25:26.543Z,69.49
2023-08-20T10:27:54.767Z,69.13
2023-08-20T10:30:26.711Z,69.60
2023-08-20T10:32:55.868Z,69.17
2023-08-20T10:35:29.647Z,69.63
2023-08-20T10:38:03.913Z,69.68
2023-08-20T10:40:57.585Z,69.66
2023-08-20T10:43:30.670Z,69.37
2023-08-20T10:46:09.609Z,69.13
2023-08-20T10:48:41.532Z,69.28
2023-08-20T10:51:13.971Z,69.40
2023-08-20T10:53:42.860Z,69.01
2023-08-20T10:56:12.261Z,69.35
2023-08-20T10:58:44.000Z,69.33
2023-08-20T11:01:19.288Z,69.61
2023-08-20T11:03:49.803Z,69.51
2023-08-20T11:06:19.676Z,69.38
2023-08-20T11:08:46.808Z,69.04
2023-08-20T11:11:14.161Z,69.09
2023-08-20T11:13:41.311Z,68.87
2023-08-20T11:16:10.892Z,68.99
2023-08-20T11:18:37.722Z,68.41
2023-08-20T11:21:06.951Z,68.60
2023-08-20T11:23:40.930Z,68.42
2023-08-20T11:26:11.362Z,67.91
2023-08-20T11:28:38.060Z,68.15
2023-08-20T11:31:04.923Z,68.12
2023-08-20T11:33:33.795Z,67.67
2023-08-20T11:36:07.036Z,66.97
2023-08-20T11:38:34.784Z,67.05
2023-08-20T11:41:01.446Z,67.05
2023-08-20T11:43:31.343Z,66.56
2023-08-20T11:45:58.024Z,66.39
2023-08-20T11:48:24.669Z,66.34
2023-08-20T11:50:51.981Z,65.76
2023-08-20T11:53:27.294Z,65.17
2023-08-20T11:55:54.175Z,65.32
2023-08-20T11:58:22.652Z,65.15
2023-08-20T12:00:52.177Z,64.85
2023-08-20T12:03:23.643Z,64.43
2023-08-20T12:05:53.346Z,64.17
2023-08-20T12:08:20.012Z,64.22
2023-08-20T12:10:46.693Z,63.80
2023-08-20T12:13:13.586Z,63.58
2023-08-20T12:15:40.228Z,63.14
2023-08-20T12:18:08.026Z,62.77
2023-08-20T12:20:40.539Z,62.45
2023-08-20T12:23:08.121Z,62.24
2023-08-20T12:25:36.848Z,61.79
2023-08-20T12:28:07.280Z,61.70
2023-08-20T12:30:38.612Z,61.21
2023-08-20T12:33:09.012Z,60.79
2023-08-20T12:35:35.972Z,60.29
2023-08-20T12:38:02.687Z,59.82
2023-08-20T12:40:35.529Z,59.56
2023-08-20T12:43:07.198Z,59.10
2023-08-20T12:45:36.402Z,58.80
2023-08-20T12:48:04.046Z,58.28
2023-08-20T12:50:31.005Z,58.27
2023-08-20T12:53:00.419Z,57.69
2023-08-20T12:55:27.167Z,57.52
2023-08-20T12:58:01.967Z,56.85
2023-08-20T13:00:28.823Z,56.53
2023-08-20T13:02:56.521Z,56.18
2023-08-20T13:05:24.631Z,55.63
2023-08-20T13:07:53.823Z,55.48
2023-08-20T13:10:21.179Z,54.95
2023-08-20T13:13:01.093Z,54.62
2023-08-20T13:15:28.832Z,54.41
2023-08-20T13:17:56.695Z,54.13
2023-08-20T13:20:26.373Z,53.81
2023-08-20T13:22:53.428Z,53.61
2023-08-20T13:25:22.682Z,53.39
2023-08-20T13:27:49.677Z,52.97
2023-08-20T13:30:20.499Z,52.51
2023-08-20T13:32:47.277Z,52.29
2023-08-20T13:35:15.733Z,51.75
2023-08-20T13:37:42.541Z,51.55
2023-08-20T13:40:10.968Z,51.63
2023-08-20T13:42:38.261Z,51.30
2023-08-20T13:45:05.666Z,50.79
2023-08-20T13:47:32.314Z,50.94
2023-08-20T13:50:01.921Z,50.20
2023-08-20T13:52:28.614Z,50.25
2023-08-20T13:54:55.258Z,50.04
2023-08-20T13:57:21.877Z,49.77
2023-08-20T13:59:50.913Z,49.24
2023-08-20T14:02:17.576Z,48.86
2023-08-20T14:04:44.236Z,48.60
2023-08-20T14:07:10.845Z,48.11
2023-08-20T14:09:37.506Z,47.96
2023-08-20T14:12:04.385Z,47.63
2023-08-20T14:14:33.569Z,47.77
2023-08-20T14:17:00.221Z,47.57
2023-08-20T14:19:26.905Z,47.23
2023-08-20T14:21:53.820Z,46.69
2023-08-20T14:24:20.492Z,47.16
2023-08-20T14:26:47.132Z,46.35
2023-08-20T14:29:13.772Z,46.00
2023-08-20T14:31:40.430Z,46.09
2023-08-20T14:34:09.362Z,46.29
2023-08-20T14:36:35.998Z,46.19
2023-08-20T14:39:07.115Z,45.60
2023-08-20T14:41:35.982Z,46.05
2023-08-20T14:44:03.558Z,45.59
2023-08-20T14:46:30.273Z,46.00
2023-08-20T14:48:56.941Z,45.73
2023-08-20T14:51:26.617Z,45.55
2023-08-20T14:53:53.248Z,46.07
2023-08-20T14:56:19.931Z,46.22
2023-08-20T14:58:46.583Z,46.00
2023-08-20T15:01:19.314Z,46.37
2023-08-20T15:03:45.988Z,46.59
2023-08-20T15:06:15.728Z,46.08
2023-08-20T15:08:47.210Z,46.34
2023-08-20T15:11:13.845Z,46.71
2023-08-20T15:13:40.535Z,46.39
2023-08-20T15:16:07.211Z,46.65
2023-08-20T15:18:33.872Z,46.52
2023-08-20T15:21:01.413Z,45.99
2023-08-20T15:23:29.164Z,45.95
2023-08-20T15:25:57.170Z,45.74
2023-08-20T15:28:26.428Z,45.94
2023-08-20T15:30:55.331Z,45.40
2023-08-20T15:33:22.460Z,45.76
2023-08-20T15:35:49.327Z,46.16
2023-08-20T15:38:16.608Z,46.04
2023-08-20T15:40:43.434Z,45.66
2023-08-20T15:43:10.088Z,45.33
2023-08-20T15:45:36.742Z,46.17
2023-08-20T15:48:06.294Z,45.97
2023-08-20T15:50:32.951Z,45.87
2023-08-20T15:52:59.632Z,45.59
2023-08-20T15:55:26.501Z,45.64
2023-08-20T15:57:55.646Z,45.68
2023-08-20T16:00:22.401Z,45.85
2023-08-20T16:02:49.188Z,46.00
2023-08-20T16:05:16.092Z,46.10
2023-08-20T16:07:43.096Z,46.16
2023-08-20T16:10:11.630Z,46.48
2023-08-20T16:12:41.276Z,46.26
2023-08-20T16:15:08.802Z,46.30
2023-08-20T16:17:37.869Z,46.44
2023-08-20T16:20:08.286Z,46.86
2023-08-20T16:22:39.682Z,47.01
2023-08-20T16:25:09.084Z,47.07
2023-08-20T16:27:39.644Z,47.13
2023-08-20T16:30:08.837Z,46.92
2023-08-20T16:32:35.558Z,47.28
2023-08-20T16:35:02.307Z,46.89
2023-08-20T16:37:28.973Z,46.79
2023-08-20T16:39:58.148Z,47.25
2023-08-20T16:42:24.761Z,46.66
2023-08-20T16:44:51.371Z,47.05
2023-08-20T16:47:20.195Z,46.96
2023-08-20T16:49:49.895Z,46.92
2023-08-20T16:52:19.043Z,46.61
2023-08-20T16:54:48.130Z,46.79
2023-08-20T16:57:17.578Z,46.89
2023-08-20T16:59:44.225Z,46.56
2023-08-20T17:02:13.125Z,46.91
2023-08-20T17:04:42.743Z,47.06
2023-08-20T17:07:09.372Z,47.10
2023-08-20T17:09:36.327Z,47.50
2023-08-20T17:12:03.961Z,47.35
2023-08-20T17:14:30.996Z,47.56
2023-08-20T17:16:58.240Z,47.60
2023-08-20T17:19:25.090Z,47.64
2023-08-20T17:21:52.933Z,47.52
2023-08-20T17:24:24.622Z,47.35
2023-08-20T17:26:51.224Z,47.87
2023-08-20T17:29:17.852Z,48.16
2023-08-20T17:31:49.216Z,48.14
2023-08-20T17:34:18.199Z,48.76
2023-08-20T17:36:44.853Z,48.75
2023-08-20T17:39:11.458Z,48.71
2023-08-20T17:41:40.322Z,49.08
2023-08-20T17:44:06.992Z,49.53
2023-08-20T17:46:46.911Z,50.01
2023-08-20T17:49:14.478Z,50.26
2023-08-20T17:51:44.725Z,50.46
2023-08-20T17:54:11.560Z,50.74
2023-08-20T17:56:39.995Z,51.19
2023-08-20T17:59:08.233Z,51.49
2023-08-20T18:01:34.990Z,52.07
2023-08-20T18:04:01.739Z,52.43
2023-08-20T18:06:31.393Z,52.95
2023-08-20T18:08:58.070Z,53.45
2023-08-20T18:11:24.756Z,53.50
2023-08-20T18:13:51.354Z,53.60
2023-08-20T18:16:20.423Z,54.04
2023-08-20T18:18:47.139Z,54.36
2023-08-20T18:21:13.872Z,54.57
2023-08-20T18:23:40.564Z,54.99
2023-08-20T18:26:10.057Z,54.88
2023-08-20T18:28:39.093Z,55.45
2023-08-20T18:31:09.957Z,55.75
2023-08-20T18:33:39.061Z,55.70
2023-08-20T18:36:06.045Z,56.02
2023-08-20T18:38:35.187Z,56.42
2023-08-20T18:41:02.943Z,56.19
2023-08-20T18:43:30.157Z,56.40
2023-08-20T18:45:56.934Z,56.54
2023-08-20T18:48:24.437Z,56.34
2023-08-20T18:50:51.077Z,56.65
2023-08-20T18:53:17.723Z,56.60
2023-08-20T18:55:46.553Z,56.59
2023-08-20T18:58:13.233Z,56.73
2023-08-20T19:00:39.844Z,56.86
2023-08-20T19:03:08.242Z,56.92
2023-08-20T19:05:37.305Z,57.10
2023-08-20T19:08:04.371Z,57.06
2023-08-20T19:10:31.226Z,56.82
2023-08-20T19:13:00.906Z,56.53
2023-08-20T19:15:27.591Z,56.84
2023-08-20T19:17:56.591Z,56.52
2023-08-20T19:20:25.507Z,56.38
2023-08-20T19:22:52.154Z,56.86
2023-08-20T19:25:21.036Z,57.44
2023-08-20T19:27:47.679Z,58.02
2023-08-20T19:30:14.362Z,58.12
2023-08-20T19:32:41.349Z,58.31
2023-08-20T19:35:08.820Z,58.54
2023-08-20T19:37:38.814Z,58.88
2023-08-20T19:40:10.088Z,59.18
2023-08-20T19:42:39.305Z,59.12
2023-08-20T19:45:09.291Z,59.40
2023-08-20T19:47:36.016Z,59.33
2023-08-20T19:50:04.807Z,59.48
2023-08-20T19:52:31.445Z,59.61
2023-08-20T19:54:58.031Z,59.79
2023-08-20T19:57:26.869Z,59.93
2023-08-20T19:59:53.474Z,59.60
2023-08-20T20:02:22.365Z,60.14
2023-08-20T20:04:49.104Z,60.46
2023-08-20T20:07:22.740Z,60.20
2023-08-20T20:09:50.187Z,60.41
2023-08-20T20:12:18.945Z,60.26
2023-08-20T20:14:45.773Z,60.23
2023-08-20T20:17:17.305Z,60.83
2023-08-20T20:19:48.224Z,60.99
2023-08-20T20:22:15.154Z,61.51
2023-08-20T20:24:42.316Z,61.72
2023-08-20T20:27:09.590Z,61.34
2023-08-20T20:29:38.904Z,61.59
2023-08-20T20:32:08.109Z,61.50
2023-08-20T20:34:34.806Z,62.09
2023-08-20T20:37:01.568Z,62.00
2023-08-20T20:39:28.210Z,62.40
2023-08-20T20:41:57.347Z,62.03
2023-08-20T20:44:24.037Z,62.44
2023-08-20T20:46:50.766Z,63.00
2023-08-20T20:49:17.580Z,62.99
2023-08-20T20:51:44.248Z,63.39
2023-08-20T20:54:10.853Z,63.09
2023-08-20T20:56:39.785Z,63.95
2023-08-20T20:59:06.453Z,64.20
2023-08-20T21:01:36.326Z,63.62
2023-08-20T21:04:03.052Z,64.20
2023-08-20T21:06:32.286Z,63.87
2023-08-20T21:09:01.904Z,64.30
2023-08-20T21:11:31.113Z,64.27
2023-08-20T21:13:57.743Z,64.22
2023-08-20T21:16:24.470Z,64.54
2023-08-20T21:18:53.519Z,64.29
2023-08-20T21:21:20.174Z,64.84
2023-08-20T21:23:46.799Z,64.42
2023-08-20T21:26:15.853Z,64.44
2023-08-20T21:28:42.487Z,64.85
2023-08-20T21:31:09.245Z,65.27
2023-08-20T21:33:35.896Z,64.96
2023-08-20T21:36:02.502Z,65.05
2023-08-20T21:38:29.160Z,65.59
2023-08-20T21:40:55.785Z,66.06
2023-08-20T21:43:25.390Z,66.25
2023-08-20T21:45:54.406Z,66.09
2023-08-20T21:48:23.482Z,66.17
2023-08-20T21:50:53.132Z,66.98
2023-08-20T21:53:24.701Z,66.72
2023-08-20T21:55:57.853Z,66.52
2023-08-20T21:58:24.680Z,67.05
2023-08-20T22:00:53.836Z,67.09
2023-08-20T22:03:20.560Z,67.29
2023-08-20T22:05:49.995Z,67.16
2023-08-20T22:08:18.368Z,67.08
2023-08-20T22:10:45.023Z,67.09
2023-08-20T22:13:17.688Z,67.57
2023-08-20T22:15:44.702Z,67.71
2023-08-20T22:18:13.556Z,67.66
2023-08-20T22:20:42.735Z,67.23
2023-08-20T22:23:09.368Z,67.40
2023-08-20T22:25:36.080Z,67.36
2023-08-20T22:28:02.894Z,67.72
2023-08-20T22:30:29.561Z,68.13
2023-08-20T22:32:58.776Z,68.17
2023-08-20T22:35:27.645Z,67.83
2023-08-20T22:38:08.462Z,68.05
2023-08-20T22:40:37.210Z,68.13
2023-08-20T22:43:04.656Z,68.63
2023-08-20T22:45:31.429Z,68.28
2023-08-20T22:47:59.775Z,68.04
2023-08-20T22:50:27.625Z,67.91
2023-08-20T22:53:02.049Z,67.53
2023-08-20T22:55:30.332Z,67.57
2023-08-20T22:57:59.633Z,67.69
2023-08-20T23:00:26.543Z,67.67
2023-08-20T23:02:53.279Z,67.84
2023-08-20T23:05:19.999Z,67.22
2023-08-20T23:07:46.766Z,67.70
2023-08-20T23:10:13.365Z,67.67
2023-08-20T23:12:40.343Z,67.38
2023-08-20T23:15:07.690Z,67.24
2023-08-20T23:17:42.112Z,67.88
2023-08-20T23:20:09.545Z,67.79
2023-08-20T23:22:38.992Z,67.74
2023-08-20T23:25:06.043Z,67.81
2023-08-20T23:27:35.435Z,67.80
2023-08-20T23:30:02.475Z,67.50
2023-08-20T23:32:31.404Z,67.86
2023-08-20T23:34:58.084Z,67.51
2023-08-20T23:37:24.783Z,67.79
2023-08-20T23:39:51.452Z,67.50
2023-08-20T23:42:20.307Z,68.11
2023-08-20T23:44:47.042Z,67.62
2023-08-20T23:47:16.001Z,68.03
2023-08-20T23:49:42.700Z,67.66
2023-08-20T23:52:09.507Z,68.15
2023-08-20T23:54:36.168Z,68.30
2023-08-20T23:57:02.836Z,68.14
2023-08-20T23:59:31.258Z,67.90
